Time;durP1;ratioP1;P1;durP2;ratioP2;P2;SDS_P1;SDS_P2;PMS_P1;PMS_P2;Temp;Humidity;BMP_temperature;BMP_pressure;BME280_temperature;BME280_humidity;BME280_pressure;Samples;Min_cycle;Max_cycle;Signal;HPM_P1;HPM_P2
2022/04/14 00:00:28;;;;;;;13.05;8.18;;;14.20;99.90;;;;;;5150304;27;20026;-46
2022/04/14 00:02:54;;;;;;;19.13;9.02;;;14.20;99.90;;;;;;5150779;27;20023;-49
2022/04/14 00:05:20;;;;;;;18.50;8.98;;;14.10;99.90;;;;;;5150973;27;20026;-46
2022/04/14 00:07:46;;;;;;;16.42;8.18;;;14.10;99.90;;;;;;5142302;27;20322;-46
2022/04/14 00:10:13;;;;;;;18.15;8.50;;;14.10;99.90;;;;;;5134153;27;20341;-46
2022/04/14 00:12:39;;;;;;;20.58;10.35;;;14.10;99.90;;;;;;5150205;27;20050;-47
2022/04/14 00:15:05;;;;;;;16.92;9.35;;;14.00;99.90;;;;;;5133028;27;20172;-47
2022/04/14 00:17:35;;;;;;;18.92;9.60;;;14.00;99.90;;;;;;5148309;27;20030;-45
2022/04/14 00:20:02;;;;;;;16.33;9.73;;;14.00;99.90;;;;;;5144358;27;20022;-46
2022/04/14 00:22:28;;;;;;;22.77;11.27;;;14.00;99.90;;;;;;5141960;27;20025;-45
2022/04/14 00:24:53;;;;;;;21.20;9.52;;;14.00;99.90;;;;;;5141743;27;20391;-47
2022/04/14 00:27:19;;;;;;;18.20;10.35;;;13.90;99.90;;;;;;5135788;27;20087;-44
2022/04/14 00:29:46;;;;;;;15.82;8.80;;;13.90;99.90;;;;;;5134880;27;20023;-46
2022/04/14 00:32:12;;;;;;;20.05;9.45;;;13.90;99.90;;;;;;5120472;27;20027;-46
2022/04/14 00:34:37;;;;;;;15.25;8.95;;;13.80;99.90;;;;;;5121122;27;20084;-47
2022/04/14 00:37:03;;;;;;;16.33;8.63;;;13.90;99.90;;;;;;5117770;27;20018;-47
2022/04/14 00:39:28;;;;;;;16.92;9.10;;;13.80;99.90;;;;;;5120245;27;20506;-49
2022/04/14 00:41:54;;;;;;;13.13;7.80;;;13.80;99.90;;;;;;5121635;27;20051;-49
2022/04/14 00:44:19;;;;;;;13.18;8.30;;;13.80;99.90;;;;;;5125185;27;20381;-47
2022/04/14 00:46:45;;;;;;;17.42;8.40;;;13.70;99.90;;;;;;5141563;27;20083;-46
2022/04/14 00:49:10;;;;;;;13.98;7.78;;;13.70;99.90;;;;;;5149537;27;20448;-49
2022/04/14 00:51:36;;;;;;;15.73;8.43;;;13.70;99.90;;;;;;5150174;27;20037;-49
2022/04/14 00:54:01;;;;;;;14.05;7.28;;;13.70;99.90;;;;;;5132966;27;20026;-46
2022/04/14 00:56:27;;;;;;;11.98;7.82;;;13.60;99.90;;;;;;5141490;27;20019;-47
2022/04/14 00:58:52;;;;;;;13.95;7.00;;;13.60;99.90;;;;;;5149072;27;20029;-48
2022/04/14 01:01:20;;;;;;;17.45;7.20;;;13.60;99.90;;;;;;5147210;27;20019;-48
2022/04/14 01:03:47;;;;;;;12.30;6.45;;;13.70;99.90;;;;;;5140969;27;20030;-47
2022/04/14 01:06:14;;;;;;;18.35;6.00;;;13.70;99.90;;;;;;5153415;27;20026;-49
2022/04/14 01:08:40;;;;;;;10.00;5.00;;;13.60;99.90;;;;;;5141560;27;20046;-49
2022/04/14 01:11:06;;;;;;;10.30;5.57;;;13.60;99.90;;;;;;5123798;27;20035;-46
2022/04/14 01:13:32;;;;;;;10.02;5.05;;;13.60;99.90;;;;;;5126763;27;20019;-46
2022/04/14 01:15:58;;;;;;;8.68;4.35;;;13.60;99.90;;;;;;5126255;27;20023;-47
2022/04/14 01:18:25;;;;;;;9.75;4.57;;;13.50;99.90;;;;;;5124898;27;20015;-48
2022/04/14 01:20:51;;;;;;;7.35;4.47;;;13.50;99.90;;;;;;5124157;27;20506;-48
2022/04/14 01:23:25;;;;;;;8.23;4.28;;;13.50;99.90;;;;;;5120706;27;20073;-48
2022/04/14 01:25:50;;;;;;;8.27;3.90;;;13.50;99.90;;;;;;5134299;27;20030;-47
2022/04/14 01:28:17;;;;;;;8.25;3.80;;;13.40;99.90;;;;;;5137262;27;20397;-49
2022/04/14 01:30:43;;;;;;;7.07;3.92;;;13.40;99.90;;;;;;5123116;27;20018;-48
2022/04/14 01:33:08;;;;;;;12.80;4.90;;;13.40;99.90;;;;;;5124687;27;20385;-46
2022/04/14 01:35:34;;;;;;;7.88;4.53;;;13.40;99.90;;;;;;5122422;27;20028;-47
2022/04/14 01:37:59;;;;;;;11.35;5.28;;;13.40;99.90;;;;;;5120388;27;20054;-50
2022/04/14 01:40:25;;;;;;;13.40;6.05;;;13.30;99.90;;;;;;5125833;27;20015;-51
2022/04/14 01:42:51;;;;;;;12.30;5.80;;;13.30;99.90;;;;;;5122634;27;20527;-48
2022/04/14 01:45:16;;;;;;;10.35;5.53;;;13.30;99.90;;;;;;5120589;27;20027;-48
2022/04/14 01:47:43;;;;;;;16.02;6.03;;;13.30;99.90;;;;;;5129381;27;20436;-50
2022/04/14 01:50:12;;;;;;;10.93;6.35;;;13.20;99.90;;;;;;5117111;27;20015;-49
2022/04/14 01:52:38;;;;;;;11.65;6.10;;;13.20;99.90;;;;;;5128026;27;20022;-50
2022/04/14 01:55:04;;;;;;;15.25;6.10;;;13.20;99.90;;;;;;5120236;27;20131;-48
2022/04/14 01:57:30;;;;;;;11.18;6.35;;;13.10;99.90;;;;;;5127845;27;20019;-49
2022/04/14 01:59:58;;;;;;;10.98;5.65;;;13.10;99.90;;;;;;5120672;27;20098;-46
2022/04/14 02:02:23;;;;;;;12.60;6.45;;;13.10;99.90;;;;;;5128078;27;20064;-47
2022/04/14 02:04:49;;;;;;;8.10;5.40;;;13.10;99.90;;;;;;5124201;27;20028;-47
2022/04/14 02:07:14;;;;;;;8.57;5.20;;;13.10;99.90;;;;;;5123615;27;20030;-48
2022/04/14 02:09:40;;;;;;;9.73;5.13;;;13.00;99.90;;;;;;5124444;27;20049;-47
2022/04/14 02:12:05;;;;;;;9.00;5.50;;;13.00;99.90;;;;;;5126013;27;20383;-47
2022/04/14 02:14:31;;;;;;;11.77;5.47;;;13.00;99.90;;;;;;5122864;27;20050;-49
2022/04/14 02:16:56;;;;;;;9.38;5.05;;;13.00;99.90;;;;;;5121169;27;20019;-48
2022/04/14 02:19:22;;;;;;;8.95;5.13;;;13.00;99.90;;;;;;5141788;27;20054;-49
2022/04/14 02:21:47;;;;;;;10.52;5.13;;;13.00;99.90;;;;;;5136931;27;20023;-50
2022/04/14 02:24:13;;;;;;;8.77;5.75;;;13.00;99.90;;;;;;5143791;27;20022;-47
2022/04/14 02:26:38;;;;;;;8.15;5.63;;;13.00;99.90;;;;;;5139243;27;20027;-47
2022/04/14 02:29:04;;;;;;;10.70;6.13;;;12.90;99.90;;;;;;5142814;27;20045;-46
2022/04/14 02:31:29;;;;;;;11.05;6.28;;;12.90;99.90;;;;;;5144257;27;20023;-46
2022/04/14 02:33:55;;;;;;;10.55;5.47;;;12.90;99.90;;;;;;5143596;27;20385;-47
2022/04/14 02:36:20;;;;;;;13.05;5.95;;;12.90;99.90;;;;;;5145706;27;20012;-48
2022/04/14 02:38:46;;;;;;;10.43;6.72;;;12.90;99.90;;;;;;5143233;27;20086;-47
2022/04/14 02:41:11;;;;;;;10.02;5.50;;;12.90;99.90;;;;;;5148749;27;20507;-47
2022/04/14 02:43:37;;;;;;;10.15;5.93;;;12.90;99.90;;;;;;5141199;27;20034;-50
2022/04/14 02:46:04;;;;;;;9.20;5.95;;;12.90;99.90;;;;;;5150481;27;20114;-46
2022/04/14 02:48:30;;;;;;;8.15;5.90;;;12.90;99.90;;;;;;5152315;27;20046;-46
2022/04/14 02:50:56;;;;;;;10.13;6.47;;;12.90;99.90;;;;;;5151619;27;20051;-46
2022/04/14 02:53:21;;;;;;;8.65;5.10;;;12.90;99.90;;;;;;5143918;27;20042;-47
2022/04/14 02:55:47;;;;;;;17.17;7.38;;;12.90;99.90;;;;;;5143316;27;20535;-47
2022/04/14 02:58:13;;;;;;;9.38;5.78;;;12.90;99.90;;;;;;5152038;27;20057;-47
2022/04/14 03:00:39;;;;;;;11.63;6.38;;;12.90;99.90;;;;;;5151467;27;20041;-48
2022/04/14 03:03:04;;;;;;;9.07;5.45;;;12.90;99.90;;;;;;5139073;27;20095;-50
2022/04/14 03:05:30;;;;;;;8.32;4.88;;;12.90;99.90;;;;;;5150703;27;20109;-49
2022/04/14 03:07:55;;;;;;;8.02;4.45;;;12.90;99.90;;;;;;5149994;27;20091;-48
2022/04/14 03:10:21;;;;;;;7.75;4.63;;;12.90;99.90;;;;;;5142238;27;20118;-47
2022/04/14 03:12:47;;;;;;;8.77;4.45;;;12.90;99.90;;;;;;5151523;27;20027;-50
2022/04/14 03:15:14;;;;;;;6.15;3.97;;;12.90;99.90;;;;;;5136887;27;20391;-48
2022/04/14 03:17:40;;;;;;;5.68;3.80;;;12.90;99.90;;;;;;5151548;27;20015;-49
2022/04/14 03:20:06;;;;;;;11.82;4.70;;;12.90;99.90;;;;;;5144793;27;20023;-48
2022/04/14 03:22:33;;;;;;;12.75;5.05;;;12.90;99.90;;;;;;5142755;27;20053;-46
2022/04/14 03:25:03;;;;;;;12.05;5.43;;;12.80;99.90;;;;;;5151209;27;20030;-48
2022/04/14 03:27:28;;;;;;;7.95;5.18;;;12.80;99.90;;;;;;5150589;27;20026;-49
2022/04/14 03:29:54;;;;;;;9.35;5.50;;;12.80;99.90;;;;;;5150778;27;20018;-48
2022/04/14 03:32:20;;;;;;;6.47;4.85;;;12.80;99.90;;;;;;5150009;27;20074;-50
2022/04/14 03:34:45;;;;;;;11.45;6.45;;;12.80;99.90;;;;;;5141410;27;20019;-48
2022/04/14 03:37:11;;;;;;;8.90;5.53;;;12.80;99.90;;;;;;5147005;27;20057;-51
2022/04/14 03:39:36;;;;;;;13.00;5.70;;;12.70;99.90;;;;;;5142934;27;20030;-47
2022/04/14 03:42:02;;;;;;;8.93;5.68;;;12.70;99.90;;;;;;5145199;27;20030;-47
2022/04/14 03:44:27;;;;;;;13.85;6.10;;;12.70;99.90;;;;;;5137166;27;20028;-47
2022/04/14 03:46:53;;;;;;;9.23;5.40;;;12.70;99.90;;;;;;5142255;27;20015;-48
2022/04/14 03:49:18;;;;;;;11.80;5.80;;;12.60;99.90;;;;;;5137711;27;20114;-49
2022/04/14 03:51:44;;;;;;;13.02;7.30;;;12.70;99.90;;;;;;5141881;27;20027;-50
2022/04/14 03:54:09;;;;;;;12.95;6.38;;;12.60;99.90;;;;;;5151178;27;20030;-49
2022/04/14 03:56:35;;;;;;;9.77;6.20;;;12.60;99.90;;;;;;5137683;27;20031;-49
2022/04/14 03:59:00;;;;;;;12.85;6.70;;;12.60;99.90;;;;;;5144378;27;20018;-50
2022/04/14 04:01:26;;;;;;;9.25;6.63;;;12.60;99.90;;;;;;5150300;27;20568;-48
2022/04/14 04:03:51;;;;;;;18.23;7.53;;;12.60;99.90;;;;;;5149268;27;20535;-49
2022/04/14 04:06:17;;;;;;;9.10;5.70;;;12.60;99.90;;;;;;5150640;27;20023;-50
2022/04/14 04:08:42;;;;;;;11.15;6.20;;;12.60;99.90;;;;;;5146400;27;20015;-48
2022/04/14 04:11:08;;;;;;;12.98;6.35;;;12.60;99.90;;;;;;5141690;27;20015;-49
2022/04/14 04:13:33;;;;;;;11.65;6.40;;;12.60;99.90;;;;;;5147909;27;20023;-49
2022/04/14 04:15:58;;;;;;;14.02;6.90;;;12.60;99.90;;;;;;5141870;27;20023;-48
2022/04/14 04:18:24;;;;;;;10.32;6.50;;;12.60;99.90;;;;;;5150506;27;20019;-51
2022/04/14 04:20:49;;;;;;;12.23;6.22;;;12.60;99.90;;;;;;5149759;27;20030;-50
2022/04/14 04:23:15;;;;;;;14.23;7.05;;;12.60;99.90;;;;;;5147647;27;20058;-48
2022/04/14 04:25:40;;;;;;;10.57;7.10;;;12.60;99.90;;;;;;5137915;27;20019;-49
2022/04/14 04:28:06;;;;;;;10.52;6.93;;;12.60;99.90;;;;;;5130130;27;20019;-51
2022/04/14 04:30:32;;;;;;;15.45;7.75;;;12.60;99.90;;;;;;5137975;27;20495;-50
2022/04/14 04:32:57;;;;;;;15.38;6.18;;;12.60;99.90;;;;;;5150470;27;20399;-46
2022/04/14 04:35:22;;;;;;;14.38;7.13;;;12.60;99.90;;;;;;5139166;27;20041;-48
2022/04/14 04:37:48;;;;;;;13.00;5.80;;;12.60;99.90;;;;;;5150258;27;20042;-47
2022/04/14 04:40:14;;;;;;;12.02;6.10;;;12.60;99.90;;;;;;5133509;27;20019;-46
2022/04/14 04:42:40;;;;;;;10.98;6.35;;;12.60;99.90;;;;;;5139986;27;20030;-47
2022/04/14 04:45:05;;;;;;;14.07;6.55;;;12.60;99.90;;;;;;5139638;27;20038;-47
2022/04/14 04:47:31;;;;;;;8.48;5.80;;;12.60;99.90;;;;;;5136744;27;20023;-47
2022/04/14 04:49:56;;;;;;;14.95;7.32;;;12.50;99.90;;;;;;5128957;28;20019;-49
2022/04/14 04:52:22;;;;;;;13.23;6.40;;;12.60;99.90;;;;;;5108638;28;20104;-49
2022/04/14 04:54:47;;;;;;;10.95;7.55;;;12.50;99.90;;;;;;5129517;27;20316;-49
2022/04/14 04:57:13;;;;;;;11.57;7.07;;;12.50;99.90;;;;;;5145711;27;21127;-49
2022/04/14 04:59:38;;;;;;;15.60;7.80;;;12.50;99.90;;;;;;5149242;27;20015;-50
2022/04/14 05:02:04;;;;;;;14.65;7.53;;;12.60;99.90;;;;;;5141266;27;20487;-52
2022/04/14 05:04:30;;;;;;;16.10;8.30;;;12.60;99.90;;;;;;5141172;27;20019;-49
2022/04/14 05:06:55;;;;;;;17.40;7.82;;;12.50;99.90;;;;;;5129561;27;20124;-48
2022/04/14 05:09:23;;;;;;;15.45;8.48;;;12.50;99.90;;;;;;5124027;27;20489;-46
2022/04/14 05:11:49;;;;;;;13.07;7.82;;;12.50;99.90;;;;;;5134864;27;20015;-46
2022/04/14 05:14:15;;;;;;;13.27;8.07;;;12.40;99.90;;;;;;5115080;27;20020;-49
2022/04/14 05:16:41;;;;;;;22.40;7.88;;;12.40;99.90;;;;;;5124266;27;20381;-47
2022/04/14 05:19:06;;;;;;;9.10;6.70;;;12.40;99.90;;;;;;5116867;27;20037;-48
2022/04/14 05:21:32;;;;;;;15.00;7.72;;;12.50;99.90;;;;;;5129523;27;20020;-50
2022/04/14 05:23:57;;;;;;;16.05;6.97;;;12.40;99.90;;;;;;5115370;27;20023;-46
2022/04/14 05:26:23;;;;;;;12.30;8.15;;;12.40;99.90;;;;;;5120711;27;20416;-47
2022/04/14 05:28:48;;;;;;;18.38;9.75;;;12.40;99.90;;;;;;5147369;27;20023;-48
2022/04/14 05:31:14;;;;;;;13.82;8.70;;;12.40;99.90;;;;;;5129034;27;20423;-47
2022/04/14 05:33:39;;;;;;;14.00;8.55;;;12.40;99.90;;;;;;5128534;27;20039;-47
2022/04/14 05:36:05;;;;;;;16.35;9.90;;;12.40;99.90;;;;;;5127252;27;20023;-46
2022/04/14 05:38:31;;;;;;;14.07;9.27;;;12.40;99.90;;;;;;5141011;27;20487;-49
2022/04/14 05:40:56;;;;;;;17.85;10.40;;;12.40;99.90;;;;;;5131967;27;20010;-47
2022/04/14 05:43:27;;;;;;;20.33;10.38;;;12.40;99.90;;;;;;5140976;27;20082;-47
2022/04/14 05:45:57;;;;;;;14.25;9.82;;;12.40;99.90;;;;;;5145406;27;20022;-47
2022/04/14 05:48:23;;;;;;;20.30;10.60;;;12.40;99.90;;;;;;5140688;27;20026;-49
2022/04/14 05:50:49;;;;;;;24.88;11.70;;;12.40;99.90;;;;;;5149909;27;20027;-47
2022/04/14 05:53:16;;;;;;;18.90;10.88;;;12.40;99.90;;;;;;5136814;27;20478;-46
2022/04/14 05:55:42;;;;;;;17.92;10.80;;;12.40;99.90;;;;;;5140614;27;20480;-49
2022/04/14 05:58:08;;;;;;;20.77;10.90;;;12.30;99.90;;;;;;5123006;27;20031;-46
2022/04/14 06:00:35;;;;;;;25.42;12.73;;;12.30;99.90;;;;;;5127376;27;20540;-46
2022/04/14 06:03:01;;;;;;;24.70;12.32;;;12.30;99.90;;;;;;5122386;27;20097;-47
2022/04/14 06:05:28;;;;;;;19.90;12.35;;;12.30;99.90;;;;;;5126738;27;20031;-48
2022/04/14 06:07:55;;;;;;;17.00;10.10;;;12.30;99.90;;;;;;5132859;27;20854;-49
2022/04/14 06:10:22;;;;;;;22.83;12.73;;;12.30;99.90;;;;;;5132719;27;20038;-48
2022/04/14 06:12:48;;;;;;;19.15;11.30;;;12.20;99.90;;;;;;5145466;27;20030;-47
2022/04/14 06:15:13;;;;;;;19.02;11.45;;;12.20;99.90;;;;;;5128457;27;20030;-47
2022/04/14 06:17:39;;;;;;;21.45;12.73;;;12.20;99.90;;;;;;5127459;27;20034;-49
2022/04/14 06:20:05;;;;;;;19.25;12.15;;;12.20;99.90;;;;;;5116755;27;20023;-48
2022/04/14 06:22:39;;;;;;;23.05;12.15;;;12.20;99.90;;;;;;5141015;27;20112;-49
2022/04/14 06:25:06;;;;;;;22.60;12.88;;;12.20;99.90;;;;;;5152741;27;20027;-46
2022/04/14 06:27:32;;;;;;;18.02;12.60;;;12.20;99.90;;;;;;5145973;27;20022;-46
2022/04/14 06:29:57;;;;;;;25.45;13.07;;;12.20;99.90;;;;;;5145782;27;20047;-46
2022/04/14 06:32:23;;;;;;;21.83;13.18;;;12.10;99.90;;;;;;5152618;27;20031;-47
2022/04/14 06:34:48;;;;;;;21.92;12.75;;;12.10;99.90;;;;;;5141268;27;20019;-46
2022/04/14 06:37:14;;;;;;;17.80;12.23;;;12.20;99.90;;;;;;5148654;27;20068;-46
2022/04/14 06:39:39;;;;;;;24.83;12.35;;;12.20;99.90;;;;;;5141497;27;20538;-46
2022/04/14 06:42:05;;;;;;;22.33;12.27;;;12.20;99.90;;;;;;5144173;27;20087;-46
2022/04/14 06:44:31;;;;;;;18.23;12.48;;;12.20;99.90;;;;;;5152594;27;20075;-47
2022/04/14 06:46:56;;;;;;;18.90;11.50;;;12.20;99.90;;;;;;5138043;27;20054;-49
2022/04/14 06:49:22;;;;;;;20.30;12.63;;;12.20;99.90;;;;;;5148937;27;20536;-45
2022/04/14 06:51:47;;;;;;;22.38;12.45;;;12.20;99.90;;;;;;5152227;27;20062;-46
2022/04/14 06:54:12;;;;;;;25.40;12.80;;;12.20;99.90;;;;;;5139003;27;20023;-48
2022/04/14 06:56:38;;;;;;;20.38;12.18;;;12.20;99.90;;;;;;5142971;27;20015;-47
2022/04/14 06:59:03;;;;;;;21.23;12.68;;;12.30;99.90;;;;;;5151588;27;20029;-46
2022/04/14 07:01:29;;;;;;;21.77;12.35;;;12.30;99.90;;;;;;5140288;27;20480;-47
2022/04/14 07:03:55;;;;;;;18.50;11.38;;;12.20;99.90;;;;;;5142785;27;20087;-45
2022/04/14 07:06:21;;;;;;;23.35;12.98;;;12.20;99.90;;;;;;5146332;27;20373;-47
2022/04/14 07:08:46;;;;;;;20.33;13.18;;;12.20;99.90;;;;;;5125491;27;20110;-47
2022/04/14 07:11:12;;;;;;;19.98;13.07;;;12.20;99.90;;;;;;5147596;27;20027;-48
2022/04/14 07:13:39;;;;;;;23.00;12.18;;;12.30;99.90;;;;;;5144507;27;20035;-46
2022/04/14 07:16:05;;;;;;;20.45;12.02;;;12.30;99.90;;;;;;5122964;27;20026;-49
2022/04/14 07:18:30;;;;;;;19.25;11.50;;;12.40;99.90;;;;;;5123331;27;20023;-49
2022/04/14 07:20:56;;;;;;;22.02;13.95;;;12.40;99.90;;;;;;5120669;27;20061;-46
2022/04/14 07:23:21;;;;;;;28.90;15.18;;;12.40;99.90;;;;;;5124919;27;20589;-49
2022/04/14 07:25:47;;;;;;;29.38;14.10;;;12.40;99.90;;;;;;5121340;27;20151;-50
2022/04/14 07:28:14;;;;;;;29.95;16.20;;;12.40;99.90;;;;;;5142673;27;20030;-46
2022/04/14 07:30:39;;;;;;;24.30;14.63;;;12.40;99.90;;;;;;5138345;27;20015;-46
2022/04/14 07:33:05;;;;;;;29.65;14.07;;;12.40;99.90;;;;;;5140822;27;20029;-49
2022/04/14 07:35:32;;;;;;;28.75;17.23;;;12.40;99.90;;;;;;5135607;27;20019;-46
2022/04/14 07:37:58;;;;;;;27.00;16.25;;;12.40;99.90;;;;;;5142627;27;20087;-46
2022/04/14 07:40:24;;;;;;;27.85;15.68;;;12.40;99.90;;;;;;5150684;27;20067;-46
2022/04/14 07:42:50;;;;;;;27.98;16.38;;;12.40;99.90;;;;;;5138784;27;20019;-47
2022/04/14 07:45:17;;;;;;;27.67;15.70;;;12.40;99.90;;;;;;5147825;27;20068;-50
2022/04/14 07:47:44;;;;;;;25.75;15.75;;;12.40;99.90;;;;;;5147123;27;20022;-47
2022/04/14 07:50:12;;;;;;;30.98;15.95;;;12.40;99.90;;;;;;5141951;27;20026;-48
2022/04/14 07:52:56;;;;;;;28.88;16.63;;;12.40;99.90;;;;;;5151343;27;20492;-47
2022/04/14 07:55:24;;;;;;;29.10;16.92;;;12.40;99.90;;;;;;5138925;27;20025;-48
2022/04/14 07:58:10;;;;;;;34.25;18.05;;;12.40;99.90;;;;;;5122447;27;20080;-46
2022/04/14 08:00:37;;;;;;;34.53;20.73;;;12.40;99.90;;;;;;5079912;28;20546;-47
2022/04/14 08:03:04;;;;;;;35.17;20.70;;;12.40;99.90;;;;;;5077364;28;20033;-48
2022/04/14 08:05:36;;;;;;;28.20;18.35;;;12.50;99.90;;;;;;5097418;28;20096;-48
2022/04/14 08:08:04;;;;;;;28.52;17.35;;;12.50;99.90;;;;;;5114796;27;20035;-47
2022/04/14 08:10:30;;;;;;;29.75;18.90;;;12.50;99.90;;;;;;5119629;27;20106;-46
2022/04/14 08:12:56;;;;;;;31.30;18.58;;;12.60;99.90;;;;;;5121794;27;20115;-47
2022/04/14 08:15:22;;;;;;;27.83;18.00;;;12.60;99.90;;;;;;5118776;27;20099;-46
2022/04/14 08:17:47;;;;;;;26.30;16.92;;;12.60;99.90;;;;;;5112097;27;20088;-47
2022/04/14 08:20:14;;;;;;;30.75;19.08;;;12.60;99.90;;;;;;5108937;28;20019;-47
2022/04/14 08:22:47;;;;;;;30.02;18.13;;;12.70;99.90;;;;;;5109402;28;20102;-46
2022/04/14 08:25:15;;;;;;;28.83;17.50;;;12.70;99.90;;;;;;5124976;27;20027;-46
2022/04/14 08:27:41;;;;;;;28.23;17.08;;;12.70;99.90;;;;;;5138032;27;20031;-46
2022/04/14 08:30:07;;;;;;;26.77;17.55;;;12.70;99.90;;;;;;5120011;27;20435;-47
2022/04/14 08:32:34;;;;;;;30.60;17.42;;;12.80;99.90;;;;;;5118842;27;20092;-46
2022/04/14 08:35:03;;;;;;;31.77;17.73;;;12.80;99.90;;;;;;5116156;27;20019;-47
2022/04/14 08:37:29;;;;;;;26.80;16.30;;;12.90;99.90;;;;;;5132637;27;20480;-47
2022/04/14 08:39:56;;;;;;;27.75;18.13;;;12.90;99.90;;;;;;5128268;27;20054;-47
2022/04/14 08:42:25;;;;;;;27.20;16.15;;;13.00;99.90;;;;;;5116513;27;20353;-48
2022/04/14 08:45:00;;;;;;;27.52;17.30;;;13.00;99.90;;;;;;5137737;27;20023;-47
2022/04/14 08:47:28;;;;;;;27.52;15.80;;;12.90;99.90;;;;;;5115188;27;20031;-47
2022/04/14 08:49:56;;;;;;;30.80;17.30;;;13.00;99.90;;;;;;5124032;27;20015;-48
2022/04/14 08:52:22;;;;;;;31.40;17.70;;;13.00;99.90;;;;;;5122138;27;20031;-47
2022/04/14 08:54:49;;;;;;;24.23;16.45;;;13.10;99.90;;;;;;5119990;27;20022;-47
2022/04/14 08:57:15;;;;;;;26.30;17.90;;;13.20;99.90;;;;;;5122791;27;20107;-49
2022/04/14 08:59:45;;;;;;;29.25;17.42;;;13.20;99.90;;;;;;5117802;27;20109;-47
2022/04/14 09:02:18;;;;;;;28.97;17.67;;;13.20;99.90;;;;;;5119711;28;20102;-48
2022/04/14 09:04:44;;;;;;;30.80;17.50;;;13.30;99.90;;;;;;5119361;28;20037;-48
2022/04/14 09:07:10;;;;;;;30.30;19.05;;;13.30;99.90;;;;;;5117169;27;20053;-47
2022/04/14 09:09:37;;;;;;;27.40;17.02;;;13.30;99.90;;;;;;5119689;27;20023;-49
2022/04/14 09:12:04;;;;;;;35.40;19.90;;;13.40;99.90;;;;;;5124081;27;20019;-50
2022/04/14 09:14:34;;;;;;;37.08;20.63;;;13.30;99.90;;;;;;5119734;28;20480;-49
2022/04/14 09:17:07;;;;;;;29.90;19.05;;;13.40;99.90;;;;;;5118713;28;20012;-49
2022/04/14 09:19:34;;;;;;;33.35;20.20;;;13.40;99.90;;;;;;5116958;28;20043;-47
2022/04/14 09:22:11;;;;;;;30.13;19.23;;;13.50;99.90;;;;;;5118430;27;20058;-46
2022/04/14 09:24:50;;;;;;;35.13;21.88;;;13.60;99.90;;;;;;5118179;27;20031;-48
2022/04/14 09:27:29;;;;;;;33.00;20.95;;;13.70;99.90;;;;;;5129599;27;20107;-47
2022/04/14 09:30:07;;;;;;;36.72;21.50;;;13.70;99.90;;;;;;5130191;27;20023;-46
2022/04/14 09:32:35;;;;;;;33.92;21.02;;;13.90;99.90;;;;;;5126077;27;20038;-48
2022/04/14 09:35:04;;;;;;;29.80;20.58;;;14.00;99.90;;;;;;5122877;27;20019;-46
2022/04/14 09:37:30;;;;;;;33.30;20.80;;;14.10;99.90;;;;;;5121493;27;20019;-47
2022/04/14 09:40:10;;;;;;;36.35;19.33;;;14.30;99.90;;;;;;5120108;27;20547;-47
2022/04/14 09:42:41;;;;;;;31.23;20.35;;;14.40;99.90;;;;;;5121009;27;20043;-47
2022/04/14 09:45:25;;;;;;;39.75;21.30;;;14.50;99.90;;;;;;5123613;27;20388;-47
2022/04/14 09:47:52;;;;;;;32.17;20.42;;;14.40;99.90;;;;;;5123837;27;20020;-47
2022/04/14 09:53:22;;;;;;;29.35;18.67;;;14.50;99.90;;;;;;5124806;27;20487;-47
2022/04/14 09:55:50;;;;;;;32.40;19.25;;;14.60;99.90;;;;;;5124455;27;20035;-47
2022/04/14 09:58:20;;;;;;;29.42;19.90;;;14.50;99.90;;;;;;5122650;27;20068;-50
2022/04/14 10:00:53;;;;;;;34.30;20.27;;;14.60;99.90;;;;;;5125721;27;20049;-48
2022/04/14 10:03:22;;;;;;;33.58;20.27;;;14.60;99.90;;;;;;5121719;27;20059;-47
2022/04/14 10:05:49;;;;;;;31.67;19.77;;;14.60;99.90;;;;;;5121074;27;20027;-47
2022/04/14 10:08:16;;;;;;;27.98;18.95;;;14.50;99.90;;;;;;5122814;27;20500;-47
2022/04/14 10:10:46;;;;;;;29.75;20.05;;;14.50;99.90;;;;;;5125892;27;20368;-48
2022/04/14 10:13:16;;;;;;;33.33;19.80;;;14.60;99.90;;;;;;5124866;27;20490;-46
2022/04/14 10:15:46;;;;;;;28.05;19.00;;;14.60;99.90;;;;;;5126431;27;20027;-48
2022/04/14 10:18:17;;;;;;;31.25;18.00;;;14.60;99.90;;;;;;5122021;27;20023;-47
2022/04/14 10:20:45;;;;;;;27.63;18.00;;;14.60;99.90;;;;;;5123049;27;20024;-47
2022/04/14 10:23:12;;;;;;;29.55;19.90;;;14.60;99.90;;;;;;5118949;27;20553;-48
2022/04/14 10:25:39;;;;;;;36.47;21.65;;;14.50;99.90;;;;;;5131088;27;20026;-47
2022/04/14 10:28:14;;;;;;;31.92;19.05;;;14.40;99.90;;;;;;5116082;27;20523;-46
2022/04/14 10:30:55;;;;;;;33.33;22.88;;;14.50;99.90;;;;;;5129098;27;20023;-47
2022/04/14 10:33:21;;;;;;;45.17;27.42;;;14.40;99.90;;;;;;5119854;27;20012;-48
2022/04/14 10:35:46;;;;;;;32.17;22.17;;;14.40;99.90;;;;;;5125358;27;20171;-46
2022/04/14 10:38:27;;;;;;;33.28;22.33;;;14.40;99.90;;;;;;5122263;27;20083;-47
2022/04/14 10:41:01;;;;;;;35.53;20.67;;;14.40;99.90;;;;;;5120631;27;20031;-49
2022/04/14 10:43:28;;;;;;;30.05;21.45;;;14.40;99.90;;;;;;5127891;27;20015;-47
2022/04/14 10:45:57;;;;;;;28.20;18.60;;;14.40;99.90;;;;;;5119190;27;20015;-46
2022/04/14 10:48:26;;;;;;;32.13;20.30;;;14.40;99.90;;;;;;5127473;27;20039;-47
2022/04/14 10:51:23;;;;;;;31.48;19.40;;;14.40;99.90;;;;;;5121604;27;20019;-46
2022/04/14 10:54:10;;;;;;;31.35;19.95;;;14.40;99.90;;;;;;5126529;27;20500;-46
2022/04/14 10:56:42;;;;;;;29.40;19.80;;;14.40;99.90;;;;;;5124251;27;20072;-48
2022/04/14 10:59:13;;;;;;;32.80;21.23;;;14.40;99.90;;;;;;5124125;27;20026;-49
2022/04/14 11:02:02;;;;;;;29.35;18.42;;;14.40;99.90;;;;;;5122699;27;20024;-47
2022/04/14 11:04:43;;;;;;;32.35;21.67;;;14.50;99.90;;;;;;5127809;27;20336;-48
2022/04/14 11:07:16;;;;;;;35.08;23.02;;;14.60;99.90;;;;;;5128913;27;20030;-50
2022/04/14 11:09:48;;;;;;;31.77;20.95;;;14.60;99.90;;;;;;5123965;27;20019;-47
2022/04/14 11:12:50;;;;;;;36.92;22.30;;;14.60;99.90;;;;;;5122890;27;20385;-47
2022/04/14 11:15:29;;;;;;;33.75;20.85;;;14.70;99.90;;;;;;5135771;27;20028;-49
2022/04/14 11:18:03;;;;;;;32.95;20.05;;;14.90;99.90;;;;;;5149504;27;20075;-46
2022/04/14 11:20:30;;;;;;;27.15;18.45;;;15.00;99.90;;;;;;5139232;27;20019;-47
2022/04/14 11:23:15;;;;;;;28.33;19.15;;;15.10;99.90;;;;;;5152175;27;20053;-46
2022/04/14 11:25:44;;;;;;;26.15;17.83;;;15.20;99.90;;;;;;5140522;27;20359;-46
2022/04/14 11:28:27;;;;;;;28.80;17.75;;;15.50;99.90;;;;;;5147433;27;20026;-48
2022/04/14 11:31:00;;;;;;;25.55;17.38;;;15.60;99.90;;;;;;5140556;27;20031;-47
2022/04/14 11:33:31;;;;;;;21.88;16.23;;;15.90;99.90;;;;;;5149367;27;20030;-47
2022/04/14 11:36:16;;;;;;;24.95;17.05;;;16.00;99.90;;;;;;5133685;27;20026;-47
2022/04/14 11:38:57;;;;;;;24.92;17.15;;;16.00;99.90;;;;;;5134275;27;20034;-47
2022/04/14 11:41:31;;;;;;;25.08;16.38;;;16.20;99.90;;;;;;5133187;27;20023;-49
2022/04/14 11:43:58;;;;;;;25.95;15.43;;;16.50;99.90;;;;;;5126739;27;20587;-48
2022/04/14 11:46:23;;;;;;;28.45;16.55;;;16.60;99.90;;;;;;5123444;27;20023;-47
2022/04/14 11:48:49;;;;;;;22.50;15.38;;;16.60;99.90;;;;;;5125625;27;20027;-49
2022/04/14 11:51:18;;;;;;;21.38;13.57;;;16.50;99.90;;;;;;5121749;27;20023;-47
2022/04/14 11:53:44;;;;;;;17.10;13.60;;;16.90;99.90;;;;;;5126264;27;20519;-47
2022/04/14 11:56:18;;;;;;;18.65;13.63;;;17.10;99.90;;;;;;5116675;27;20031;-50
2022/04/14 11:58:44;;;;;;;22.73;14.25;;;17.30;99.90;;;;;;5132261;27;20110;-47
2022/04/14 12:01:11;;;;;;;22.20;13.30;;;17.20;99.90;;;;;;5124235;27;20450;-49
2022/04/14 12:03:36;;;;;;;19.63;14.48;;;17.20;99.90;;;;;;5140786;27;20152;-50
2022/04/14 12:06:06;;;;;;;17.88;13.70;;;17.30;99.90;;;;;;5110722;27;20107;-50
2022/04/14 12:08:35;;;;;;;23.50;14.02;;;17.70;99.90;;;;;;5126576;27;20022;-47
2022/04/14 12:11:10;;;;;;;20.50;12.88;;;17.40;99.90;;;;;;5122386;27;20023;-47
2022/04/14 12:13:36;;;;;;;22.30;13.68;;;17.80;99.90;;;;;;5120924;27;20027;-49
2022/04/14 12:16:04;;;;;;;17.15;13.32;;;18.10;99.90;;;;;;5134807;27;20035;-48
2022/04/14 12:18:30;;;;;;;17.83;12.02;;;18.50;99.90;;;;;;5134822;27;20493;-48
2022/04/14 12:20:55;;;;;;;21.50;13.70;;;18.90;99.90;;;;;;5119142;27;20027;-46
2022/04/14 12:23:21;;;;;;;19.60;13.25;;;19.00;99.90;;;;;;5122494;27;20094;-47
2022/04/14 12:25:46;;;;;;;17.23;12.07;;;19.00;99.90;;;;;;5121249;27;20028;-49
2022/04/14 12:28:12;;;;;;;17.55;11.93;;;18.90;99.90;;;;;;5120217;27;20038;-47
2022/04/14 12:30:41;;;;;;;15.32;10.30;;;19.20;99.90;;;;;;5121969;27;20045;-48
2022/04/14 12:33:08;;;;;;;19.98;12.93;;;19.30;99.90;;;;;;5117271;27;20019;-49
2022/04/14 12:35:42;;;;;;;17.58;12.93;;;19.40;99.90;;;;;;5125061;27;20025;-48
2022/04/14 12:38:12;;;;;;;16.30;11.50;;;19.60;99.90;;;;;;5123702;27;20042;-47